Time;durP1;ratioP1;P1;durP2;ratioP2;P2;SDS_P1;SDS_P2;PMS_P1;PMS_P2;Temp;Humidity;BMP_temperature;BMP_pressure;BME280_temperature;BME280_humidity;BME280_pressure;Samples;Min_cycle;Max_cycle;Signal;HPM_P1;HPM_P2
2023/02/16 16:52:57;0.00;0.00;0.62;0.00;0.00;0.62;3.83;3.40;;;23.70;23.10;;;;;;2271168;40;20841;-67
2023/02/16 16:55:42;0.00;0.00;0.62;0.00;0.00;0.62;4.90;3.87;;;23.70;23.10;;;;;;2264472;61;20495;-67
2023/02/16 16:58:26;0.00;0.00;0.62;0.00;0.00;0.62;4.60;3.67;;;23.70;23.20;;;;;;2264407;61;20359;-67
2023/02/16 17:01:12;0.00;0.00;0.62;0.00;0.00;0.62;4.20;3.80;;;23.70;23.10;;;;;;2262981;61;20452;-67
2023/02/16 17:03:57;0.00;0.00;0.62;0.00;0.00;0.62;5.30;3.63;;;23.70;23.10;;;;;;2264957;61;20935;-67
2023/02/16 17:06:42;0.00;0.00;0.62;0.00;0.00;0.62;3.60;3.20;;;23.70;23.10;;;;;;2264814;61;20476;-67
2023/02/16 17:09:28;0.00;0.00;0.62;0.00;0.00;0.62;4.10;3.70;;;23.70;23.10;;;;;;2264531;61;20359;-67
2023/02/16 17:12:13;0.00;0.00;0.62;0.00;0.00;0.62;3.33;3.03;;;23.70;23.10;;;;;;2262006;61;20415;-66
2023/02/16 17:14:59;0.00;0.00;0.62;0.00;0.00;0.62;4.60;3.73;;;23.70;23.10;;;;;;2265209;61;21082;-67
2023/02/16 17:17:44;0.00;0.00;0.62;0.00;0.00;0.62;4.67;3.37;;;23.70;23.10;;;;;;2265210;61;20368;-67
2023/02/16 17:20:29;0.00;0.00;0.62;0.00;0.00;0.62;3.90;3.50;;;23.70;23.10;;;;;;2264788;61;20368;-66
2023/02/16 17:23:16;0.00;0.00;0.62;0.00;0.00;0.62;3.90;3.50;;;23.70;23.10;;;;;;2264864;61;20410;-66
2023/02/16 17:26:03;0.00;0.00;0.62;0.00;0.00;0.62;4.00;3.60;;;23.70;23.10;;;;;;2265373;61;20912;-66
2023/02/16 17:28:48;0.00;0.00;0.62;0.00;0.00;0.62;4.93;3.33;;;23.70;23.10;;;;;;2265505;61;20940;-66
2023/02/16 17:31:34;0.00;0.00;0.62;0.00;0.00;0.62;4.73;3.70;;;23.70;23.10;;;;;;2261788;61;20395;-71
2023/02/16 17:34:19;0.00;0.00;0.62;0.00;0.00;0.62;3.40;3.03;;;23.70;23.00;;;;;;2264739;61;20355;-66
2023/02/16 17:37:08;0.00;0.00;0.62;0.00;0.00;0.62;4.00;2.93;;;23.70;23.00;;;;;;2265484;61;20767;-67
2023/02/16 17:39:53;0.00;0.00;0.62;0.00;0.00;0.62;3.50;3.00;;;23.70;23.00;;;;;;2264741;61;20375;-68
2023/02/16 17:42:39;0.00;0.00;0.62;0.00;0.00;0.62;4.90;3.73;;;23.70;23.00;;;;;;2265138;61;20943;-68
2023/02/16 17:45:24;0.00;0.00;0.62;0.00;0.00;0.62;3.13;2.83;;;23.70;23.00;;;;;;2264978;61;20414;-67
2023/02/16 17:48:15;0.00;0.00;0.62;0.00;0.00;0.62;4.33;3.63;;;23.70;23.00;;;;;;2265518;61;20776;-67
2023/02/16 17:51:00;0.00;0.00;0.62;0.00;0.00;0.62;3.87;3.03;;;23.70;23.00;;;;;;2261814;61;20898;-67
2023/02/16 17:53:44;0.00;0.00;0.62;0.00;0.00;0.62;4.07;3.20;;;23.70;23.00;;;;;;2264607;61;20376;-66
2023/02/16 17:56:30;0.00;0.00;0.62;0.00;0.00;0.62;3.43;2.87;;;23.60;23.00;;;;;;2264822;61;20356;-67
2023/02/16 17:59:17;0.00;0.00;0.62;0.00;0.00;0.62;3.57;3.10;;;23.60;23.00;;;;;;2264783;61;20771;-68
2023/02/16 18:02:01;0.00;0.00;0.62;0.00;0.00;0.62;2.90;2.33;;;23.60;23.00;;;;;;2264749;61;20477;-67
2023/02/16 18:04:46;0.00;0.00;0.62;0.00;0.00;0.62;4.20;2.60;;;23.60;23.00;;;;;;2264918;61;20387;-68
2023/02/16 18:07:30;0.00;0.00;0.62;0.00;0.00;0.62;3.03;2.73;;;23.60;23.00;;;;;;2265149;61;20889;-67
2023/02/16 18:10:32;0.00;0.00;0.62;0.00;0.00;0.62;3.60;3.13;;;23.60;23.00;;;;;;2264593;61;20926;-67
2023/02/16 18:13:17;0.00;0.00;0.62;0.00;0.00;0.62;3.57;2.87;;;23.60;23.00;;;;;;2265151;61;20384;-67
2023/02/16 18:16:05;0.00;0.00;0.62;0.00;0.00;0.62;3.27;2.97;;;23.60;23.00;;;;;;2264888;61;20384;-67
2023/02/16 18:18:50;0.00;0.00;0.62;0.00;0.00;0.62;3.50;2.90;;;23.60;23.00;;;;;;2264550;61;20368;-67
2023/02/16 18:21:35;0.00;0.00;0.62;0.00;0.00;0.62;3.73;2.97;;;23.60;23.00;;;;;;2265254;61;20387;-67
2023/02/16 18:24:20;0.00;0.00;0.62;0.00;0.00;0.62;3.33;3.03;;;23.60;23.00;;;;;;2264721;61;20476;-70
2023/02/16 18:27:05;0.00;0.00;0.62;0.00;0.00;0.62;3.40;3.10;;;23.60;23.00;;;;;;2264933;61;20364;-66
2023/02/16 18:29:50;0.00;0.00;0.62;0.00;0.00;0.62;3.50;2.80;;;23.60;23.00;;;;;;2264276;61;20356;-68
2023/02/16 18:32:36;0.00;0.00;0.62;0.00;0.00;0.62;3.17;2.63;;;23.60;23.00;;;;;;2261543;61;20429;-69
2023/02/16 18:35:21;0.00;0.00;0.62;0.00;0.00;0.62;3.17;2.87;;;23.60;23.00;;;;;;2265023;61;20419;-66
2023/02/16 18:38:06;0.00;0.00;0.62;0.00;0.00;0.62;3.53;2.83;;;23.60;23.00;;;;;;2264295;61;20534;-67
2023/02/16 18:40:52;0.00;0.00;0.62;0.00;0.00;0.62;3.57;2.87;;;23.60;23.00;;;;;;2263980;61;20459;-67
2023/02/16 18:43:37;0.00;0.00;0.62;0.00;0.00;0.62;2.77;2.47;;;23.60;23.00;;;;;;2264748;61;20383;-67
2023/02/16 18:46:22;0.00;0.00;0.62;0.00;0.00;0.62;3.20;2.83;;;23.50;22.90;;;;;;2264992;61;20429;-67
2023/02/16 18:49:08;0.00;0.00;0.62;0.00;0.00;0.62;3.50;2.47;;;23.60;23.00;;;;;;2264516;61;20752;-67
2023/02/16 18:51:52;0.00;0.00;0.62;0.00;0.00;0.62;2.97;2.30;;;23.50;23.00;;;;;;2258680;61;20840;-67
2023/02/16 18:54:37;0.00;0.00;0.62;0.00;0.00;0.62;2.57;2.30;;;23.50;22.90;;;;;;2264843;61;20422;-67
2023/02/16 18:57:22;0.00;0.00;0.62;0.00;0.00;0.62;3.43;3.03;;;23.50;22.90;;;;;;2265000;61;20452;-67
2023/02/16 19:00:10;0.00;0.00;0.62;0.00;0.00;0.62;2.90;2.60;;;23.50;22.90;;;;;;2263923;61;20387;-68
2023/02/16 19:02:55;0.00;0.00;0.62;0.00;0.00;0.62;3.30;2.67;;;23.50;22.90;;;;;;2264756;61;20392;-68
2023/02/16 19:05:42;0.00;0.00;0.62;0.00;0.00;0.62;3.13;2.83;;;23.50;22.90;;;;;;2261690;61;20360;-67
2023/02/16 19:08:26;0.00;0.00;0.62;0.00;0.00;0.62;2.80;2.53;;;23.50;22.90;;;;;;2264765;61;20405;-66
2023/02/16 19:11:11;0.00;0.00;0.62;0.00;0.00;0.62;3.40;2.60;;;23.50;22.90;;;;;;2264551;61;20393;-68
2023/02/16 19:13:56;0.00;0.00;0.62;0.00;0.00;0.62;2.53;2.20;;;23.50;23.00;;;;;;2258778;61;20390;-67
2023/02/16 19:16:41;0.00;0.00;0.62;0.00;0.00;0.62;2.83;2.50;;;23.50;23.00;;;;;;2261612;61;20390;-66
2023/02/16 19:19:25;0.00;0.00;0.62;0.00;0.00;0.62;2.63;2.10;;;23.50;23.00;;;;;;2264653;61;20380;-67
2023/02/16 19:22:11;0.00;0.00;0.62;0.00;0.00;0.62;3.30;2.63;;;23.50;23.00;;;;;;2264158;61;20530;-67
2023/02/16 19:24:56;0.00;0.00;0.62;0.00;0.00;0.62;3.40;2.43;;;23.50;23.00;;;;;;2264753;61;20452;-65
2023/02/16 19:27:41;0.00;0.00;0.62;0.00;0.00;0.62;2.43;2.07;;;23.50;23.00;;;;;;2265051;61;20418;-67
2023/02/16 19:30:26;0.00;0.00;0.62;0.00;0.00;0.62;2.67;2.40;;;23.40;22.90;;;;;;2264360;61;20360;-67
2023/02/16 19:33:10;0.00;0.00;0.62;0.00;0.00;0.62;2.80;2.50;;;23.50;23.00;;;;;;2265108;61;20797;-67
2023/02/16 19:36:01;0.00;0.00;0.62;0.00;0.00;0.62;2.57;2.20;;;23.50;23.00;;;;;;2264962;61;20360;-66
2023/02/16 19:38:47;0.00;0.00;0.62;0.00;0.00;0.62;3.47;3.17;;;23.50;23.00;;;;;;2264949;61;20364;-67
2023/02/16 19:41:35;0.00;0.00;0.62;0.00;0.00;0.62;3.60;2.73;;;23.50;23.50;;;;;;2264577;61;20442;-67
2023/02/16 19:44:19;0.00;0.00;0.62;0.00;0.00;0.62;2.93;2.63;;;23.50;23.00;;;;;;2264249;61;20386;-67
2023/02/16 19:47:04;0.00;0.00;0.62;0.00;0.00;0.62;3.23;2.50;;;23.40;22.90;;;;;;2264230;61;20495;-66
2023/02/16 19:49:49;0.00;0.00;0.62;0.00;0.00;0.62;3.37;2.63;;;23.40;22.90;;;;;;2264258;61;20367;-68
2023/02/16 19:52:33;0.00;0.00;0.62;0.00;0.00;0.62;2.80;2.20;;;23.40;22.90;;;;;;2263778;61;20383;-68
2023/02/16 19:55:20;0.00;0.00;0.62;0.00;0.00;0.62;3.60;2.83;;;23.40;22.90;;;;;;2264004;61;20356;-67
2023/02/16 19:58:05;0.00;0.00;0.62;0.00;0.00;0.62;3.00;2.60;;;23.40;22.90;;;;;;2263946;61;20380;-67
2023/02/16 20:00:50;0.00;0.00;0.62;0.00;0.00;0.62;2.50;2.10;;;23.40;22.90;;;;;;2263517;61;20765;-66
2023/02/16 20:03:35;0.00;0.00;0.62;0.00;0.00;0.62;3.23;2.80;;;23.40;22.90;;;;;;2263643;61;20380;-69
2023/02/16 20:06:23;0.00;0.00;0.62;0.00;0.00;0.62;2.93;2.43;;;23.40;22.90;;;;;;2260705;61;20942;-66
2023/02/16 20:09:11;0.00;0.00;0.62;0.00;0.00;0.62;2.57;2.20;;;23.40;22.90;;;;;;2263648;61;20452;-66
2023/02/16 20:11:57;0.00;0.00;0.62;0.00;0.00;0.62;3.47;2.37;;;23.40;22.90;;;;;;2264239;61;20388;-66
2023/02/16 20:14:42;0.00;0.00;0.62;0.00;0.00;0.62;2.90;2.50;;;23.40;22.90;;;;;;2263809;61;20407;-68
2023/02/16 20:17:27;0.00;0.00;0.62;0.00;0.00;0.62;2.40;2.20;;;23.40;22.90;;;;;;2263963;61;20931;-66
2023/02/16 20:20:12;0.00;0.00;0.62;0.00;0.00;0.62;3.13;2.73;;;23.40;22.90;;;;;;2263519;61;20457;-67
2023/02/16 20:22:57;0.00;0.00;0.62;0.00;0.00;0.62;2.43;2.00;;;23.40;22.90;;;;;;2263969;61;20630;-67
2023/02/16 20:25:41;0.00;0.00;0.62;0.00;0.00;0.62;2.57;2.13;;;23.40;22.90;;;;;;2260415;61;20402;-67
2023/02/16 20:28:27;0.00;0.00;0.62;0.00;0.00;0.62;3.17;2.43;;;23.40;22.90;;;;;;2263894;61;20468;-67
2023/02/16 20:31:16;0.00;0.00;0.62;0.00;0.00;0.62;2.77;2.13;;;23.40;22.90;;;;;;2263860;61;20372;-67
2023/02/16 20:34:02;0.00;0.00;0.62;0.00;0.00;0.62;2.70;2.37;;;23.40;22.90;;;;;;2264201;61;20344;-66
2023/02/16 20:36:47;0.00;0.00;0.62;0.00;0.00;0.62;2.80;2.27;;;23.40;22.90;;;;;;2263749;61;20391;-67
2023/02/16 20:39:32;0.00;0.00;0.62;0.00;0.00;0.62;2.63;2.40;;;23.40;22.90;;;;;;2260060;61;20368;-67
2023/02/16 20:42:17;0.00;0.00;0.62;0.00;0.00;0.62;3.37;2.50;;;23.40;23.00;;;;;;2264005;61;20379;-68
2023/02/16 20:45:03;0.00;0.00;0.62;0.00;0.00;0.62;2.47;2.13;;;23.30;22.90;;;;;;2264191;61;20434;-66
2023/02/16 20:47:48;0.00;0.00;0.62;0.00;0.00;0.62;2.50;2.03;;;23.40;23.00;;;;;;2264612;61;20769;-66
2023/02/16 20:50:33;0.00;0.00;0.62;0.00;0.00;0.62;2.67;2.40;;;23.30;22.90;;;;;;2264363;61;20443;-65
2023/02/16 20:53:18;0.00;0.00;0.62;0.00;0.00;0.62;2.53;2.33;;;23.30;22.90;;;;;;2264890;61;20380;-66
2023/02/16 20:56:06;0.00;0.00;0.62;0.00;0.00;0.62;2.93;2.43;;;23.30;22.90;;;;;;2264995;61;20355;-67
2023/02/16 20:58:53;0.00;0.00;0.62;0.00;0.00;0.62;2.73;2.00;;;23.30;22.90;;;;;;2263424;61;20372;-66
2023/02/16 21:01:48;0.00;0.00;0.62;0.00;0.00;0.62;2.93;2.07;;;23.30;22.90;;;;;;2264600;61;20395;-67
2023/02/16 21:04:35;0.00;0.00;0.62;0.00;0.00;0.62;2.57;2.37;;;23.30;22.90;;;;;;2261132;61;20962;-68
2023/02/16 21:07:19;0.00;0.00;0.62;0.00;0.00;0.62;2.93;2.30;;;23.30;22.90;;;;;;2264444;61;20383;-67
2023/02/16 21:10:07;0.00;0.00;0.62;0.00;0.00;0.62;2.50;2.23;;;23.30;22.90;;;;;;2260958;61;20950;-66
2023/02/16 21:12:52;0.00;0.00;0.62;0.00;0.00;0.62;2.60;2.10;;;23.30;23.00;;;;;;2264384;61;20429;-66
2023/02/16 21:15:37;0.00;0.00;0.62;0.00;0.00;0.62;2.93;2.23;;;23.30;22.90;;;;;;2264603;61;20375;-67
2023/02/16 21:18:24;0.00;0.00;0.62;0.00;0.00;0.62;2.63;2.17;;;23.30;22.90;;;;;;2264949;61;20364;-67
2023/02/16 21:21:14;0.00;0.00;0.62;0.00;0.00;0.62;2.30;2.07;;;23.30;22.90;;;;;;2263646;61;20364;-67
2023/02/16 21:23:59;0.00;0.00;0.62;0.00;0.00;0.62;2.50;2.00;;;23.30;23.00;;;;;;2264300;61;20475;-68
2023/02/16 21:26:44;0.00;0.00;0.62;0.00;0.00;0.62;3.00;2.70;;;23.30;23.00;;;;;;2264491;61;20372;-69
2023/02/16 21:29:29;0.00;0.00;0.62;0.00;0.00;0.62;2.53;2.33;;;23.30;23.00;;;;;;2264256;61;20788;-66
2023/02/16 21:32:13;0.00;0.00;0.62;0.00;0.00;0.62;2.47;1.90;;;23.30;22.90;;;;;;2261216;61;20915;-66
2023/02/16 21:34:59;0.00;0.00;0.62;0.00;0.00;0.62;2.77;2.30;;;23.30;23.00;;;;;;2264210;61;20356;-65
2023/02/16 21:37:44;0.00;0.00;0.62;0.00;0.00;0.62;2.80;2.10;;;23.30;23.00;;;;;;2264771;61;20418;-66
2023/02/16 21:43:33;0.00;0.00;0.62;0.00;0.00;0.62;2.63;2.40;;;23.30;22.90;;;;;;2264206;61;20475;-66
2023/02/16 21:46:18;0.00;0.00;0.62;0.00;0.00;0.62;2.90;2.00;;;23.30;23.00;;;;;;2264592;61;20926;-66
2023/02/16 21:49:03;0.00;0.00;0.62;0.00;0.00;0.62;3.83;2.20;;;23.20;22.90;;;;;;2260996;61;20360;-65
2023/02/16 21:51:49;0.00;0.00;0.62;0.00;0.00;0.62;2.67;2.20;;;23.30;23.00;;;;;;2264678;61;20420;-66
2023/02/16 21:57:37;0.00;0.00;0.62;0.00;0.00;0.62;2.20;1.87;;;23.30;23.00;;;;;;2260918;61;20406;-66
2023/02/16 22:00:22;0.00;0.00;0.62;0.00;0.00;0.62;2.80;2.47;;;23.30;23.00;;;;;;2260571;61;20819;-67
2023/02/16 22:03:10;0.00;0.00;0.62;0.00;0.00;0.62;2.20;1.83;;;23.20;22.90;;;;;;2261568;61;20392;-66
2023/02/16 22:05:55;0.00;0.00;0.62;0.00;0.00;0.62;3.27;2.30;;;23.20;22.90;;;;;;2263996;61;20363;-67
2023/02/16 22:08:41;0.00;0.00;0.62;0.00;0.00;0.62;2.50;2.10;;;23.20;22.90;;;;;;2260875;61;20444;-66
2023/02/16 22:11:26;0.00;0.00;0.62;0.00;0.00;0.62;2.40;2.20;;;23.20;22.90;;;;;;2264541;61;20780;-66
2023/02/16 22:14:11;0.00;0.00;0.62;0.00;0.00;0.62;2.70;2.10;;;23.20;22.90;;;;;;2264476;61;20403;-66
2023/02/16 22:16:56;0.00;0.00;0.62;0.00;0.00;0.62;3.13;1.90;;;23.20;22.90;;;;;;2264405;61;20779;-65
2023/02/16 22:19:41;0.00;0.00;0.62;0.00;0.00;0.62;3.20;1.97;;;23.20;22.90;;;;;;2263813;61;20448;-69
2023/02/16 22:22:25;0.00;0.00;0.62;0.00;0.00;0.62;2.60;2.03;;;23.20;22.90;;;;;;2263902;61;20723;-65
2023/02/16 22:25:13;0.00;0.00;0.62;0.00;0.00;0.62;2.50;1.90;;;23.20;22.90;;;;;;2264402;61;20439;-68
2023/02/16 22:27:57;0.00;0.00;0.62;0.00;0.00;0.62;2.40;1.90;;;23.20;22.90;;;;;;2264115;61;20429;-65
2023/02/16 22:30:42;0.00;0.00;0.62;0.00;0.00;0.62;2.50;2.00;;;23.20;23.00;;;;;;2260496;61;20404;-66
2023/02/16 22:33:26;0.00;0.00;0.62;0.00;0.00;0.62;2.07;1.60;;;23.20;22.90;;;;;;2264572;61;20364;-66
2023/02/16 22:36:15;0.00;0.00;0.62;0.00;0.00;0.62;2.33;2.00;;;23.20;23.00;;;;;;2264149;61;20400;-67
2023/02/16 22:39:00;0.00;0.00;0.62;0.00;0.00;0.62;2.30;2.03;;;23.20;23.00;;;;;;2263804;61;20407;-68
2023/02/16 22:41:48;0.00;0.00;0.62;0.00;0.00;0.62;2.30;1.90;;;23.20;23.00;;;;;;2264285;61;20403;-65
2023/02/16 22:44:33;0.00;0.00;0.62;0.00;0.00;0.62;2.40;1.90;;;23.20;23.00;;;;;;2264045;61;20904;-65
2023/02/16 22:47:20;0.00;0.00;0.62;0.00;0.00;0.62;2.30;1.80;;;23.20;23.00;;;;;;2261406;61;20406;-64
2023/02/16 22:50:07;0.00;0.00;0.62;0.00;0.00;0.62;2.60;2.30;;;23.20;23.00;;;;;;2263844;61;20900;-65
2023/02/16 22:52:52;0.00;0.00;0.62;0.00;0.00;0.62;2.20;1.43;;;23.20;23.00;;;;;;2264360;61;21000;-65
2023/02/16 22:55:40;0.00;0.00;0.62;0.00;0.00;0.62;1.97;1.47;;;23.20;23.00;;;;;;2264266;61;20402;-66
2023/02/16 22:58:28;0.00;0.00;0.62;0.00;0.00;0.62;2.47;2.03;;;23.20;23.00;;;;;;2264423;61;20364;-67
2023/02/16 23:01:17;0.00;0.00;0.62;0.00;0.00;0.62;2.27;1.60;;;23.20;23.00;;;;;;2263990;61;20368;-66
2023/02/16 23:04:03;0.00;0.00;0.62;0.00;0.00;0.62;2.10;1.90;;;23.20;23.00;;;;;;2263777;61;20438;-69
2023/02/16 23:06:48;0.00;0.00;0.62;0.00;0.00;0.62;2.30;1.73;;;23.20;22.90;;;;;;2260726;61;20782;-66
2023/02/16 23:09:33;0.00;0.00;0.62;0.00;0.00;0.62;2.90;2.20;;;23.20;23.00;;;;;;2261098;61;20364;-66
2023/02/16 23:12:18;0.00;0.00;0.62;0.00;0.00;0.62;2.10;1.67;;;23.20;23.00;;;;;;2263936;61;20479;-66
2023/02/16 23:15:05;0.00;0.00;0.62;0.00;0.00;0.62;2.57;2.13;;;23.20;23.00;;;;;;2264062;61;20372;-67
2023/02/16 23:17:50;0.00;0.00;0.62;0.00;0.00;0.62;2.70;1.97;;;23.20;23.00;;;;;;2261363;61;20763;-66
2023/02/16 23:20:34;0.00;0.00;0.62;0.00;0.00;0.62;2.53;1.87;;;23.20;23.00;;;;;;2263418;61;20377;-66
2023/02/16 23:23:19;0.00;0.00;0.62;0.00;0.00;0.62;1.90;1.57;;;23.20;23.00;;;;;;2263387;61;20466;-66
2023/02/16 23:26:05;0.00;0.00;0.62;0.00;0.00;0.62;3.83;2.47;;;23.20;23.00;;;;;;2264221;61;20854;-65
2023/02/16 23:28:53;0.00;0.00;0.62;0.00;0.00;0.62;3.20;2.07;;;23.20;23.00;;;;;;2263788;61;20382;-68
2023/02/16 23:31:42;0.00;0.00;0.62;0.00;0.00;0.62;2.87;2.10;;;23.10;22.90;;;;;;2264725;61;20376;-66
2023/02/16 23:34:27;0.00;0.00;0.62;0.00;0.00;0.62;2.63;2.13;;;23.10;23.00;;;;;;2260620;61;20828;-65
2023/02/16 23:37:12;0.00;0.00;0.62;0.00;0.00;0.62;2.40;1.87;;;23.10;22.90;;;;;;2264137;61;20391;-65
2023/02/16 23:39:58;0.00;0.00;0.62;0.00;0.00;0.62;2.30;2.00;;;23.10;22.90;;;;;;2263851;61;20450;-63
2023/02/16 23:42:42;0.00;0.00;0.62;0.00;0.00;0.62;2.37;1.93;;;23.10;22.90;;;;;;2260830;61;20875;-66
2023/02/16 23:45:27;0.00;0.00;0.62;0.00;0.00;0.62;2.57;2.10;;;23.10;23.00;;;;;;2263720;61;20845;-67
2023/02/16 23:48:14;0.00;0.00;0.62;0.00;0.00;0.62;2.47;1.67;;;23.10;22.90;;;;;;2260814;61;20368;-66
2023/02/16 23:50:58;0.00;0.00;0.62;0.00;0.00;0.62;2.80;2.37;;;23.10;22.90;;;;;;2264330;61;20364;-70
2023/02/16 23:53:43;0.00;0.00;0.62;0.00;0.00;0.62;2.57;2.20;;;23.10;22.90;;;;;;2264521;61;20399;-66
2023/02/16 23:56:28;0.00;0.00;0.62;0.00;0.00;0.62;2.60;2.40;;;23.10;22.90;;;;;;2260214;61;20360;-64
2023/02/16 23:59:13;0.00;0.00;0.62;0.00;0.00;0.62;2.13;1.87;;;23.10;23.00;;;;;;2264055;61;20410;-65
